sensor_id;sensor_type;location;lat;lon;timestamp;P1;durP1;ratioP1;P2;durP2;ratioP2
63534;SDS011;55128;50.230;18.944;2023-07-20T00:01:11;9.13;;;5.78;;
63534;SDS011;55128;50.230;18.944;2023-07-20T00:06:11;8.75;;;5.75;;
63534;SDS011;55128;50.230;18.944;2023-07-20T00:11:12;7.90;;;6.18;;
63534;SDS011;55128;50.230;18.944;2023-07-20T00:16:13;7.38;;;5.60;;
63534;SDS011;55128;50.230;18.944;2023-07-20T00:21:13;6.90;;;5.60;;
63534;SDS011;55128;50.230;18.944;2023-07-20T00:26:14;7.57;;;5.13;;
63534;SDS011;55128;50.230;18.944;2023-07-20T00:31:15;6.80;;;4.47;;
63534;SDS011;55128;50.230;18.944;2023-07-20T00:36:15;6.77;;;4.77;;
63534;SDS011;55128;50.230;18.944;2023-07-20T00:41:15;6.00;;;4.27;;
63534;SDS011;55128;50.230;18.944;2023-07-20T00:46:16;6.90;;;4.40;;
63534;SDS011;55128;50.230;18.944;2023-07-20T00:51:16;6.65;;;3.97;;
63534;SDS011;55128;50.230;18.944;2023-07-20T00:56:17;6.00;;;3.50;;
63534;SDS011;55128;50.230;18.944;2023-07-20T01:01:17;4.70;;;3.50;;
63534;SDS011;55128;50.230;18.944;2023-07-20T01:06:22;5.37;;;3.50;;
63534;SDS011;55128;50.230;18.944;2023-07-20T01:11:37;5.47;;;3.63;;
63534;SDS011;55128;50.230;18.944;2023-07-20T01:16:38;5.75;;;3.65;;
63534;SDS011;55128;50.230;18.944;2023-07-20T01:21:48;4.30;;;3.35;;
63534;SDS011;55128;50.230;18.944;2023-07-20T01:27:00;4.22;;;3.20;;
63534;SDS011;55128;50.230;18.944;2023-07-20T01:32:04;9.48;;;3.35;;
63534;SDS011;55128;50.230;18.944;2023-07-20T01:37:08;5.65;;;3.50;;
63534;SDS011;55128;50.230;18.944;2023-07-20T01:42:10;5.47;;;3.20;;
63534;SDS011;55128;50.230;18.944;2023-07-20T01:47:11;6.50;;;3.58;;
63534;SDS011;55128;50.230;18.944;2023-07-20T01:52:11;7.17;;;3.23;;
63534;SDS011;55128;50.230;18.944;2023-07-20T01:57:12;7.87;;;3.70;;
63534;SDS011;55128;50.230;18.944;2023-07-20T02:02:12;4.43;;;3.50;;
63534;SDS011;55128;50.230;18.944;2023-07-20T02:07:12;5.00;;;3.60;;
63534;SDS011;55128;50.230;18.944;2023-07-20T02:12:13;6.80;;;3.60;;
63534;SDS011;55128;50.230;18.944;2023-07-20T02:17:13;4.97;;;3.22;;
63534;SDS011;55128;50.230;18.944;2023-07-20T02:22:13;6.70;;;3.75;;
63534;SDS011;55128;50.230;18.944;2023-07-20T02:27:13;7.37;;;3.70;;
63534;SDS011;55128;50.230;18.944;2023-07-20T02:32:14;5.82;;;3.38;;
63534;SDS011;55128;50.230;18.944;2023-07-20T02:37:14;4.30;;;3.70;;
63534;SDS011;55128;50.230;18.944;2023-07-20T02:42:14;6.90;;;3.35;;
63534;SDS011;55128;50.230;18.944;2023-07-20T02:47:15;5.83;;;3.70;;
63534;SDS011;55128;50.230;18.944;2023-07-20T02:52:15;5.70;;;3.60;;
63534;SDS011;55128;50.230;18.944;2023-07-20T02:57:15;5.00;;;3.20;;
63534;SDS011;55128;50.230;18.944;2023-07-20T03:02:16;5.25;;;3.45;;
63534;SDS011;55128;50.230;18.944;2023-07-20T03:07:16;6.65;;;3.45;;
63534;SDS011;55128;50.230;18.944;2023-07-20T03:12:17;6.23;;;3.73;;
63534;SDS011;55128;50.230;18.944;2023-07-20T03:17:17;5.80;;;3.13;;
63534;SDS011;55128;50.230;18.944;2023-07-20T03:22:17;6.15;;;4.03;;
63534;SDS011;55128;50.230;18.944;2023-07-20T03:27:18;6.78;;;4.20;;
63534;SDS011;55128;50.230;18.944;2023-07-20T03:32:18;5.27;;;3.23;;
63534;SDS011;55128;50.230;18.944;2023-07-20T03:37:19;6.40;;;3.37;;
63534;SDS011;55128;50.230;18.944;2023-07-20T03:42:19;6.95;;;3.47;;
63534;SDS011;55128;50.230;18.944;2023-07-20T03:47:19;6.20;;;3.00;;
63534;SDS011;55128;50.230;18.944;2023-07-20T03:52:19;5.82;;;2.90;;
63534;SDS011;55128;50.230;18.944;2023-07-20T03:57:20;3.70;;;2.95;;
63534;SDS011;55128;50.230;18.944;2023-07-20T04:02:20;5.38;;;3.45;;
63534;SDS011;55128;50.230;18.944;2023-07-20T04:07:20;5.18;;;2.90;;
63534;SDS011;55128;50.230;18.944;2023-07-20T04:12:21;7.43;;;3.53;;
63534;SDS011;55128;50.230;18.944;2023-07-20T04:17:21;5.03;;;3.00;;
63534;SDS011;55128;50.230;18.944;2023-07-20T04:22:21;5.17;;;3.13;;
63534;SDS011;55128;50.230;18.944;2023-07-20T04:27:22;6.53;;;3.40;;
63534;SDS011;55128;50.230;18.944;2023-07-20T04:32:22;6.70;;;2.97;;
63534;SDS011;55128;50.230;18.944;2023-07-20T04:37:23;7.17;;;3.30;;
63534;SDS011;55128;50.230;18.944;2023-07-20T04:42:23;5.35;;;3.40;;
63534;SDS011;55128;50.230;18.944;2023-07-20T04:47:23;4.37;;;3.00;;
63534;SDS011;55128;50.230;18.944;2023-07-20T04:52:24;4.47;;;3.30;;
63534;SDS011;55128;50.230;18.944;2023-07-20T04:57:24;5.25;;;3.40;;
63534;SDS011;55128;50.230;18.944;2023-07-20T05:02:25;3.83;;;2.85;;
63534;SDS011;55128;50.230;18.944;2023-07-20T05:07:25;6.72;;;3.25;;
63534;SDS011;55128;50.230;18.944;2023-07-20T05:12:26;4.63;;;3.20;;
63534;SDS011;55128;50.230;18.944;2023-07-20T05:17:26;3.75;;;2.75;;
63534;SDS011;55128;50.230;18.944;2023-07-20T05:22:26;4.22;;;3.17;;
63534;SDS011;55128;50.230;18.944;2023-07-20T05:27:26;5.13;;;3.73;;
63534;SDS011;55128;50.230;18.944;2023-07-20T05:32:27;5.78;;;2.90;;
63534;SDS011;55128;50.230;18.944;2023-07-20T05:37:27;4.10;;;3.00;;
63534;SDS011;55128;50.230;18.944;2023-07-20T05:42:28;5.00;;;4.22;;
63534;SDS011;55128;50.230;18.944;2023-07-20T05:47:28;4.50;;;3.05;;
63534;SDS011;55128;50.230;18.944;2023-07-20T05:52:29;4.57;;;2.80;;
63534;SDS011;55128;50.230;18.944;2023-07-20T05:57:29;4.07;;;2.50;;
63534;SDS011;55128;50.230;18.944;2023-07-20T06:02:30;3.75;;;2.60;;
63534;SDS011;55128;50.230;18.944;2023-07-20T06:07:30;3.43;;;2.30;;
63534;SDS011;55128;50.230;18.944;2023-07-20T06:12:31;4.03;;;2.40;;
63534;SDS011;55128;50.230;18.944;2023-07-20T06:17:32;4.15;;;2.10;;
63534;SDS011;55128;50.230;18.944;2023-07-20T06:22:33;3.60;;;2.17;;
63534;SDS011;55128;50.230;18.944;2023-07-20T06:27:33;6.07;;;2.50;;
63534;SDS011;55128;50.230;18.944;2023-07-20T06:32:33;4.50;;;2.30;;
63534;SDS011;55128;50.230;18.944;2023-07-20T06:37:34;3.55;;;2.10;;
63534;SDS011;55128;50.230;18.944;2023-07-20T06:42:35;3.72;;;2.10;;
63534;SDS011;55128;50.230;18.944;2023-07-20T06:47:37;3.80;;;2.00;;
63534;SDS011;55128;50.230;18.944;2023-07-20T06:52:38;2.90;;;1.88;;
63534;SDS011;55128;50.230;18.944;2023-07-20T06:57:39;2.50;;;1.48;;
63534;SDS011;55128;50.230;18.944;2023-07-20T07:02:40;2.00;;;1.30;;
63534;SDS011;55128;50.230;18.944;2023-07-20T07:07:40;2.13;;;0.90;;
63534;SDS011;55128;50.230;18.944;2023-07-20T07:12:40;2.33;;;1.40;;
63534;SDS011;55128;50.230;18.944;2023-07-20T07:17:41;1.83;;;1.00;;
63534;SDS011;55128;50.230;18.944;2023-07-20T07:22:44;2.13;;;1.10;;
63534;SDS011;55128;50.230;18.944;2023-07-20T07:27:45;2.53;;;1.20;;
63534;SDS011;55128;50.230;18.944;2023-07-20T07:32:45;1.97;;;1.00;;
63534;SDS011;55128;50.230;18.944;2023-07-20T07:37:46;3.17;;;1.13;;
63534;SDS011;55128;50.230;18.944;2023-07-20T07:42:47;1.73;;;0.90;;
63534;SDS011;55128;50.230;18.944;2023-07-20T07:47:47;2.03;;;0.80;;
63534;SDS011;55128;50.230;18.944;2023-07-20T07:52:47;1.27;;;0.90;;
63534;SDS011;55128;50.230;18.944;2023-07-20T07:57:48;1.97;;;1.13;;
63534;SDS011;55128;50.230;18.944;2023-07-20T08:02:49;1.50;;;0.93;;
63534;SDS011;55128;50.230;18.944;2023-07-20T08:07:50;4.32;;;1.23;;
63534;SDS011;55128;50.230;18.944;2023-07-20T08:12:50;1.88;;;1.05;;
63534;SDS011;55128;50.230;18.944;2023-07-20T08:17:51;2.43;;;1.33;;
63534;SDS011;55128;50.230;18.944;2023-07-20T08:22:52;1.77;;;1.20;;
63534;SDS011;55128;50.230;18.944;2023-07-20T08:32:54;3.75;;;1.90;;
63534;SDS011;55128;50.230;18.944;2023-07-20T08:37:55;3.53;;;2.75;;
63534;SDS011;55128;50.230;18.944;2023-07-20T08:42:55;3.42;;;2.17;;
63534;SDS011;55128;50.230;18.944;2023-07-20T08:47:59;4.18;;;2.70;;
63534;SDS011;55128;50.230;18.944;2023-07-20T08:53:01;3.08;;;2.47;;
63534;SDS011;55128;50.230;18.944;2023-07-20T08:58:02;3.22;;;2.72;;
63534;SDS011;55128;50.230;18.944;2023-07-20T09:03:08;4.57;;;2.65;;
63534;SDS011;55128;50.230;18.944;2023-07-20T09:08:10;3.72;;;2.80;;
63534;SDS011;55128;50.230;18.944;2023-07-20T09:13:14;6.73;;;3.20;;
63534;SDS011;55128;50.230;18.944;2023-07-20T09:18:28;4.70;;;3.20;;
63534;SDS011;55128;50.230;18.944;2023-07-20T09:23:34;4.47;;;3.55;;
63534;SDS011;55128;50.230;18.944;2023-07-20T09:28:42;4.38;;;3.33;;
63534;SDS011;55128;50.230;18.944;2023-07-20T09:33:44;5.38;;;3.40;;
63534;SDS011;55128;50.230;18.944;2023-07-20T09:38:45;6.90;;;3.45;;
63534;SDS011;55128;50.230;18.944;2023-07-20T09:43:46;5.07;;;3.50;;
63534;SDS011;55128;50.230;18.944;2023-07-20T09:48:52;5.03;;;4.18;;
63534;SDS011;55128;50.230;18.944;2023-07-20T09:53:56;4.38;;;3.70;;
63534;SDS011;55128;50.230;18.944;2023-07-20T09:58:57;6.32;;;4.40;;
63534;SDS011;55128;50.230;18.944;2023-07-20T10:03:58;4.72;;;4.25;;
63534;SDS011;55128;50.230;18.944;2023-07-20T10:09:02;5.80;;;5.25;;
63534;SDS011;55128;50.230;18.944;2023-07-20T10:14:04;6.57;;;4.82;;
63534;SDS011;55128;50.230;18.944;2023-07-20T10:19:13;9.63;;;5.60;;
63534;SDS011;55128;50.230;18.944;2023-07-20T10:24:34;6.00;;;5.40;;
63534;SDS011;55128;50.230;18.944;2023-07-20T10:29:36;5.05;;;4.55;;
63534;SDS011;55128;50.230;18.944;2023-07-20T10:34:37;6.90;;;4.50;;
63534;SDS011;55128;50.230;18.944;2023-07-20T10:39:38;5.93;;;4.13;;
63534;SDS011;55128;50.230;18.944;2023-07-20T10:44:40;4.30;;;3.75;;
63534;SDS011;55128;50.230;18.944;2023-07-20T10:49:57;5.37;;;3.93;;
63534;SDS011;55128;50.230;18.944;2023-07-20T10:55:09;5.47;;;3.10;;
63534;SDS011;55128;50.230;18.944;2023-07-20T11:00:19;3.28;;;2.55;;
63534;SDS011;55128;50.230;18.944;2023-07-20T11:05:32;2.28;;;1.95;;
63534;SDS011;55128;50.230;18.944;2023-07-20T11:10:37;3.25;;;2.45;;
63534;SDS011;55128;50.230;18.944;2023-07-20T11:15:44;3.22;;;1.95;;
63534;SDS011;55128;50.230;18.944;2023-07-20T11:20:57;2.88;;;2.17;;
63534;SDS011;55128;50.230;18.944;2023-07-20T11:25:58;4.60;;;1.95;;
63534;SDS011;55128;50.230;18.944;2023-07-20T11:31:00;2.72;;;2.10;;
63534;SDS011;55128;50.230;18.944;2023-07-20T11:36:00;3.53;;;1.90;;
63534;SDS011;55128;50.230;18.944;2023-07-20T11:41:02;2.90;;;2.13;;
63534;SDS011;55128;50.230;18.944;2023-07-20T11:46:04;5.90;;;2.40;;
63534;SDS011;55128;50.230;18.944;2023-07-20T11:51:05;2.63;;;1.80;;
63534;SDS011;55128;50.230;18.944;2023-07-20T11:56:06;2.70;;;1.75;;
63534;SDS011;55128;50.230;18.944;2023-07-20T12:01:08;2.90;;;2.03;;
63534;SDS011;55128;50.230;18.944;2023-07-20T12:06:09;3.80;;;2.10;;
63534;SDS011;55128;50.230;18.944;2023-07-20T12:11:10;3.67;;;1.98;;
63534;SDS011;55128;50.230;18.944;2023-07-20T12:16:11;4.03;;;1.80;;
63534;SDS011;55128;50.230;18.944;2023-07-20T12:21:13;2.78;;;2.08;;
63534;SDS011;55128;50.230;18.944;2023-07-20T12:26:13;2.90;;;2.00;;
63534;SDS011;55128;50.230;18.944;2023-07-20T12:31:15;2.72;;;2.13;;
63534;SDS011;55128;50.230;18.944;2023-07-20T12:36:15;2.83;;;2.00;;
63534;SDS011;55128;50.230;18.944;2023-07-20T12:41:16;3.78;;;2.08;;
63534;SDS011;55128;50.230;18.944;2023-07-20T12:46:17;2.47;;;2.00;;
63534;SDS011;55128;50.230;18.944;2023-07-20T12:51:17;2.33;;;1.83;;
63534;SDS011;55128;50.230;18.944;2023-07-20T12:56:18;2.72;;;1.90;;
63534;SDS011;55128;50.230;18.944;2023-07-20T13:01:19;4.05;;;2.20;;
63534;SDS011;55128;50.230;18.944;2023-07-20T13:06:19;4.72;;;1.92;;
63534;SDS011;55128;50.230;18.944;2023-07-20T13:11:20;2.55;;;1.70;;
63534;SDS011;55128;50.230;18.944;2023-07-20T13:16:20;2.92;;;1.75;;
63534;SDS011;55128;50.230;18.944;2023-07-20T13:21:20;2.30;;;1.60;;
63534;SDS011;55128;50.230;18.944;2023-07-20T13:26:22;4.20;;;2.13;;
63534;SDS011;55128;50.230;18.944;2023-07-20T13:31:23;2.63;;;1.90;;
63534;SDS011;55128;50.230;18.944;2023-07-20T13:36:23;3.57;;;1.70;;
63534;SDS011;55128;50.230;18.944;2023-07-20T13:41:23;2.10;;;1.60;;
63534;SDS011;55128;50.230;18.944;2023-07-20T13:46:24;4.03;;;1.80;;
63534;SDS011;55128;50.230;18.944;2023-07-20T13:51:25;3.58;;;1.58;;
63534;SDS011;55128;50.230;18.944;2023-07-20T13:56:26;2.63;;;1.60;;
63534;SDS011;55128;50.230;18.944;2023-07-20T14:01:27;3.08;;;1.73;;
63534;SDS011;55128;50.230;18.944;2023-07-20T14:06:31;3.58;;;1.80;;
63534;SDS011;55128;50.230;18.944;2023-07-20T14:11:32;2.70;;;1.50;;
63534;SDS011;55128;50.230;18.944;2023-07-20T14:16:33;8.57;;;2.57;;
63534;SDS011;55128;50.230;18.944;2023-07-20T14:21:33;3.73;;;1.87;;
63534;SDS011;55128;50.230;18.944;2023-07-20T14:26:33;2.35;;;1.70;;
63534;SDS011;55128;50.230;18.944;2023-07-20T14:31:35;4.65;;;2.08;;
63534;SDS011;55128;50.230;18.944;2023-07-20T14:36:35;5.13;;;2.20;;
63534;SDS011;55128;50.230;18.944;2023-07-20T14:41:35;3.97;;;2.07;;
63534;SDS011;55128;50.230;18.944;2023-07-20T14:46:36;4.55;;;2.40;;
63534;SDS011;55128;50.230;18.944;2023-07-20T14:51:36;4.07;;;1.80;;
63534;SDS011;55128;50.230;18.944;2023-07-20T14:56:49;4.35;;;1.98;;
63534;SDS011;55128;50.230;18.944;2023-07-20T15:01:52;3.60;;;1.70;;
63534;SDS011;55128;50.230;18.944;2023-07-20T15:06:53;5.18;;;2.20;;
63534;SDS011;55128;50.230;18.944;2023-07-20T15:11:54;2.90;;;1.75;;
63534;SDS011;55128;50.230;18.944;2023-07-20T15:16:55;3.85;;;1.88;;
63534;SDS011;55128;50.230;18.944;2023-07-20T15:21:55;3.27;;;1.70;;
63534;SDS011;55128;50.230;18.944;2023-07-20T15:26:56;3.47;;;1.60;;
63534;SDS011;55128;50.230;18.944;2023-07-20T15:31:57;4.38;;;1.80;;
63534;SDS011;55128;50.230;18.944;2023-07-20T15:36:57;3.05;;;1.60;;
63534;SDS011;55128;50.230;18.944;2023-07-20T15:41:58;3.78;;;1.27;;
63534;SDS011;55128;50.230;18.944;2023-07-20T15:46:59;4.13;;;1.80;;
63534;SDS011;55128;50.230;18.944;2023-07-20T15:51:59;2.67;;;1.33;;
63534;SDS011;55128;50.230;18.944;2023-07-20T15:57:00;3.15;;;1.40;;
63534;SDS011;55128;50.230;18.944;2023-07-20T16:02:00;2.30;;;1.40;;
63534;SDS011;55128;50.230;18.944;2023-07-20T16:07:01;2.80;;;1.58;;
63534;SDS011;55128;50.230;18.944;2023-07-20T16:12:01;5.38;;;1.45;;
63534;SDS011;55128;50.230;18.944;2023-07-20T16:17:01;2.20;;;1.40;;
63534;SDS011;55128;50.230;18.944;2023-07-20T16:22:02;2.50;;;1.70;;
63534;SDS011;55128;50.230;18.944;2023-07-20T16:27:03;2.00;;;1.45;;
63534;SDS011;55128;50.230;18.944;2023-07-20T16:32:04;3.60;;;1.70;;
63534;SDS011;55128;50.230;18.944;2023-07-20T16:37:05;2.13;;;1.42;;
63534;SDS011;55128;50.230;18.944;2023-07-20T16:42:05;2.20;;;1.40;;
63534;SDS011;55128;50.230;18.944;2023-07-20T16:47:06;3.38;;;1.50;;
63534;SDS011;55128;50.230;18.944;2023-07-20T16:52:08;3.15;;;1.55;;
63534;SDS011;55128;50.230;18.944;2023-07-20T16:57:08;2.67;;;1.50;;
63534;SDS011;55128;50.230;18.944;2023-07-20T17:02:09;2.22;;;1.63;;
63534;SDS011;55128;50.230;18.944;2023-07-20T17:07:09;1.83;;;1.40;;
63534;SDS011;55128;50.230;18.944;2023-07-20T17:12:10;2.28;;;1.63;;
63534;SDS011;55128;50.230;18.944;2023-07-20T17:17:10;2.85;;;2.00;;
63534;SDS011;55128;50.230;18.944;2023-07-20T17:22:10;2.22;;;1.35;;
63534;SDS011;55128;50.230;18.944;2023-07-20T17:27:11;1.90;;;1.33;;
63534;SDS011;55128;50.230;18.944;2023-07-20T17:32:11;2.92;;;1.30;;
63534;SDS011;55128;50.230;18.944;2023-07-20T17:37:11;2.20;;;1.57;;
63534;SDS011;55128;50.230;18.944;2023-07-20T17:42:16;2.22;;;1.30;;
63534;SDS011;55128;50.230;18.944;2023-07-20T17:47:16;4.43;;;1.37;;
63534;SDS011;55128;50.230;18.944;2023-07-20T17:52:17;2.00;;;1.35;;
63534;SDS011;55128;50.230;18.944;2023-07-20T17:57:17;1.40;;;1.17;;
63534;SDS011;55128;50.230;18.944;2023-07-20T18:02:17;1.73;;;1.35;;
63534;SDS011;55128;50.230;18.944;2023-07-20T18:07:18;3.58;;;1.23;;
63534;SDS011;55128;50.230;18.944;2023-07-20T18:12:18;1.73;;;1.50;;
63534;SDS011;55128;50.230;18.944;2023-07-20T18:17:18;2.08;;;1.40;;
63534;SDS011;55128;50.230;18.944;2023-07-20T18:22:19;3.83;;;1.77;;
63534;SDS011;55128;50.230;18.944;2023-07-20T18:27:19;2.00;;;1.40;;
63534;SDS011;55128;50.230;18.944;2023-07-20T18:32:19;2.13;;;1.40;;
63534;SDS011;55128;50.230;18.944;2023-07-20T18:37:20;1.75;;;1.50;;
63534;SDS011;55128;50.230;18.944;2023-07-20T18:42:20;2.92;;;1.80;;
63534;SDS011;55128;50.230;18.944;2023-07-20T18:47:21;3.05;;;1.65;;
63534;SDS011;55128;50.230;18.944;2023-07-20T18:52:22;2.67;;;1.70;;
63534;SDS011;55128;50.230;18.944;2023-07-20T18:57:22;2.28;;;1.60;;
63534;SDS011;55128;50.230;18.944;2023-07-20T19:02:22;2.30;;;1.97;;
63534;SDS011;55128;50.230;18.944;2023-07-20T19:07:23;1.85;;;1.65;;
63534;SDS011;55128;50.230;18.944;2023-07-20T19:12:24;5.55;;;2.47;;
63534;SDS011;55128;50.230;18.944;2023-07-20T19:17:26;2.97;;;1.83;;
63534;SDS011;55128;50.230;18.944;2023-07-20T19:22:29;3.03;;;2.10;;
63534;SDS011;55128;50.230;18.944;2023-07-20T19:27:29;2.88;;;1.83;;
63534;SDS011;55128;50.230;18.944;2023-07-20T19:32:30;2.40;;;2.00;;
63534;SDS011;55128;50.230;18.944;2023-07-20T19:37:30;2.45;;;1.88;;
63534;SDS011;55128;50.230;18.944;2023-07-20T19:42:30;4.13;;;2.00;;
63534;SDS011;55128;50.230;18.944;2023-07-20T19:47:31;5.80;;;2.60;;
63534;SDS011;55128;50.230;18.944;2023-07-20T19:52:31;3.45;;;2.33;;
63534;SDS011;55128;50.230;18.944;2023-07-20T19:57:31;3.90;;;2.30;;
63534;SDS011;55128;50.230;18.944;2023-07-20T20:02:32;6.28;;;2.67;;
63534;SDS011;55128;50.230;18.944;2023-07-20T20:07:32;4.20;;;2.50;;
63534;SDS011;55128;50.230;18.944;2023-07-20T20:12:34;4.80;;;2.95;;
63534;SDS011;55128;50.230;18.944;2023-07-20T20:17:34;3.63;;;2.80;;
63534;SDS011;55128;50.230;18.944;2023-07-20T20:22:36;4.03;;;3.05;;
63534;SDS011;55128;50.230;18.944;2023-07-20T20:27:36;3.85;;;3.10;;
63534;SDS011;55128;50.230;18.944;2023-07-20T20:32:39;4.45;;;3.00;;
63534;SDS011;55128;50.230;18.944;2023-07-20T20:37:44;3.50;;;3.10;;
63534;SDS011;55128;50.230;18.944;2023-07-20T20:42:44;4.05;;;3.17;;
63534;SDS011;55128;50.230;18.944;2023-07-20T20:47:44;5.95;;;3.38;;
63534;SDS011;55128;50.230;18.944;2023-07-20T20:52:46;4.35;;;3.75;;
63534;SDS011;55128;50.230;18.944;2023-07-20T20:57:47;7.43;;;3.88;;
63534;SDS011;55128;50.230;18.944;2023-07-20T21:02:48;4.88;;;3.50;;
63534;SDS011;55128;50.230;18.944;2023-07-20T21:07:52;5.32;;;3.60;;
63534;SDS011;55128;50.230;18.944;2023-07-20T21:12:52;4.33;;;3.77;;
63534;SDS011;55128;50.230;18.944;2023-07-20T21:17:52;4.18;;;3.45;;
63534;SDS011;55128;50.230;18.944;2023-07-20T21:22:53;4.18;;;3.28;;
63534;SDS011;55128;50.230;18.944;2023-07-20T21:27:53;4.13;;;3.40;;
63534;SDS011;55128;50.230;18.944;2023-07-20T21:32:54;4.28;;;3.25;;
63534;SDS011;55128;50.230;18.944;2023-07-20T21:37:55;4.80;;;3.50;;
63534;SDS011;55128;50.230;18.944;2023-07-20T21:42:55;5.07;;;3.33;;
63534;SDS011;55128;50.230;18.944;2023-07-20T21:47:57;5.10;;;3.70;;
63534;SDS011;55128;50.230;18.944;2023-07-20T21:52:59;5.43;;;3.63;;
63534;SDS011;55128;50.230;18.944;2023-07-20T21:58:00;4.70;;;4.10;;
63534;SDS011;55128;50.230;18.944;2023-07-20T22:03:00;4.47;;;3.45;;
63534;SDS011;55128;50.230;18.944;2023-07-20T22:08:00;5.47;;;4.10;;
63534;SDS011;55128;50.230;18.944;2023-07-20T22:13:01;5.32;;;4.18;;
63534;SDS011;55128;50.230;18.944;2023-07-20T22:18:02;4.95;;;4.00;;
63534;SDS011;55128;50.230;18.944;2023-07-20T22:23:02;5.65;;;3.97;;
63534;SDS011;55128;50.230;18.944;2023-07-20T22:28:03;6.20;;;3.90;;
63534;SDS011;55128;50.230;18.944;2023-07-20T22:33:03;6.20;;;4.20;;
63534;SDS011;55128;50.230;18.944;2023-07-20T22:38:04;5.63;;;4.50;;
63534;SDS011;55128;50.230;18.944;2023-07-20T22:43:04;7.87;;;5.27;;
63534;SDS011;55128;50.230;18.944;2023-07-20T22:48:04;6.55;;;4.57;;
63534;SDS011;55128;50.230;18.944;2023-07-20T22:53:04;7.15;;;5.10;;
63534;SDS011;55128;50.230;18.944;2023-07-20T22:58:05;7.15;;;4.70;;
63534;SDS011;55128;50.230;18.944;2023-07-20T23:03:05;5.82;;;4.93;;
63534;SDS011;55128;50.230;18.944;2023-07-20T23:08:05;7.18;;;4.50;;
63534;SDS011;55128;50.230;18.944;2023-07-20T23:13:06;5.65;;;4.63;;
63534;SDS011;55128;50.230;18.944;2023-07-20T23:18:07;5.60;;;4.70;;
63534;SDS011;55128;50.230;18.944;2023-07-20T23:23:07;6.60;;;4.93;;
63534;SDS011;55128;50.230;18.944;2023-07-20T23:28:08;5.00;;;4.50;;
63534;SDS011;55128;50.230;18.944;2023-07-20T23:33:08;6.33;;;5.57;;
63534;SDS011;55128;50.230;18.944;2023-07-20T23:38:09;5.75;;;5.10;;
63534;SDS011;55128;50.230;18.944;2023-07-20T23:43:09;6.20;;;5.60;;
63534;SDS011;55128;50.230;18.944;2023-07-20T23:48:09;9.73;;;5.28;;
63534;SDS011;55128;50.230;18.944;2023-07-20T23:53:12;7.25;;;5.85;;
63534;SDS011;55128;50.230;18.944;2023-07-20T23:58:12;9.13;;;6.03;;
